createdAt,value
2022-09-02T00:00:50.926Z,45.99
2022-09-02T00:05:50.917Z,46.07
2022-09-02T00:10:51.034Z,46.15
2022-09-02T00:15:51.143Z,46.37
2022-09-02T00:20:51.228Z,46.59
2022-09-02T00:25:50.977Z,46.75
2022-09-02T00:30:50.964Z,46.80
2022-09-02T00:35:51.048Z,46.75
2022-09-02T00:40:51.374Z,46.85
2022-09-02T00:45:51.256Z,47.00
2022-09-02T00:50:51.026Z,47.00
2022-09-02T00:55:51.460Z,47.14
2022-09-02T01:00:52.085Z,47.30
2022-09-02T01:05:51.974Z,47.41
2022-09-02T01:10:52.468Z,47.43
2022-09-02T01:15:52.148Z,47.48
2022-09-02T01:20:52.074Z,47.56
2022-09-02T01:25:52.142Z,47.54
2022-09-02T01:30:52.037Z,47.51
2022-09-02T01:35:51.973Z,47.53
2022-09-02T01:40:52.685Z,47.67
2022-09-02T01:45:53.920Z,47.67
2022-09-02T01:50:54.259Z,47.68
2022-09-02T01:55:54.342Z,47.87
2022-09-02T02:00:54.301Z,47.85
2022-09-02T02:05:55.028Z,47.97
2022-09-02T02:10:56.893Z,47.98
2022-09-02T02:15:57.156Z,48.12
2022-09-02T02:20:57.096Z,48.13
2022-09-02T02:25:57.058Z,48.25
2022-09-02T02:30:57.203Z,48.44
2022-09-02T02:35:57.244Z,48.31
2022-09-02T02:40:57.905Z,48.37
2022-09-02T02:45:58.244Z,48.50
2022-09-02T02:50:58.220Z,48.54
2022-09-02T02:55:58.337Z,48.65
2022-09-02T03:00:58.504Z,48.72
2022-09-02T03:05:59.153Z,48.79
2022-09-02T03:11:00.996Z,49.00
2022-09-02T03:16:01.287Z,48.94
2022-09-02T03:21:01.239Z,49.01
2022-09-02T03:26:03.051Z,48.99
2022-09-02T03:31:03.223Z,49.01
2022-09-02T03:36:03.457Z,49.08
2022-09-02T03:41:03.146Z,49.20
2022-09-02T03:46:03.691Z,49.22
2022-09-02T03:51:05.476Z,49.19
2022-09-02T03:56:05.189Z,49.15
2022-09-02T04:01:05.300Z,49.39
2022-09-02T04:06:05.598Z,49.59
2022-09-02T04:11:05.215Z,49.62
2022-09-02T04:16:05.353Z,49.61
2022-09-02T04:21:08.524Z,49.50
2022-09-02T04:26:08.355Z,49.37
2022-09-02T04:31:10.186Z,49.57
2022-09-02T04:36:12.781Z,49.77
2022-09-02T04:41:14.234Z,49.96
2022-09-02T04:46:16.070Z,50.12
2022-09-02T04:51:16.830Z,50.09
2022-09-02T04:56:18.050Z,50.07
2022-09-02T05:01:18.587Z,50.21
2022-09-02T05:06:20.397Z,50.02
2022-09-02T05:11:23.088Z,49.81
2022-09-02T05:16:23.730Z,49.53
2022-09-02T05:21:24.697Z,49.24
2022-09-02T05:26:25.122Z,48.95
2022-09-02T05:31:26.729Z,48.70
2022-09-02T05:36:28.483Z,48.61
2022-09-02T05:41:30.117Z,48.91
2022-09-02T05:46:30.961Z,48.99
2022-09-02T05:51:31.364Z,49.25
2022-09-02T05:56:31.582Z,49.34
2022-09-02T06:01:33.226Z,49.36
2022-09-02T06:06:33.323Z,49.38
2022-09-02T06:11:34.631Z,49.28
2022-09-02T06:16:34.508Z,48.94
2022-09-02T06:21:34.405Z,48.42
2022-09-02T06:26:35.681Z,47.48
2022-09-02T06:31:36.187Z,46.50
2022-09-02T06:36:36.550Z,45.84
2022-09-02T06:41:38.113Z,44.98
2022-09-02T06:46:40.155Z,41.68
2022-09-02T06:51:40.604Z,40.02
2022-09-02T06:56:40.831Z,37.51
2022-09-02T07:01:42.119Z,32.85
2022-09-02T07:06:42.454Z,29.28
2022-09-02T07:11:43.037Z,25.18
2022-09-02T07:16:43.506Z,24.62
2022-09-02T07:21:43.877Z,24.82
2022-09-02T07:26:44.425Z,27.44
2022-09-02T07:31:44.369Z,29.84
2022-09-02T07:36:46.907Z,26.34
2022-09-02T07:41:47.905Z,26.35
2022-09-02T07:46:49.167Z,27.90
2022-09-02T07:51:49.800Z,26.93
2022-09-02T07:56:51.094Z,24.42
2022-09-02T08:01:51.780Z,23.63
2022-09-02T08:06:52.379Z,22.78
2022-09-02T08:11:52.321Z,26.14
2022-09-02T08:16:52.756Z,23.22
2022-09-02T08:21:52.299Z,22.24
2022-09-02T08:26:52.329Z,23.66
2022-09-02T08:31:54.082Z,24.01
2022-09-02T08:36:56.730Z,23.74
2022-09-02T08:41:56.369Z,22.72
2022-09-02T08:46:56.371Z,22.10
2022-09-02T08:51:56.478Z,19.49
2022-09-02T08:56:58.497Z,17.95
2022-09-02T09:01:58.439Z,18.29
2022-09-02T09:07:00.509Z,18.78
2022-09-02T09:12:00.432Z,17.73
2022-09-02T09:17:00.478Z,17.60
2022-09-02T09:22:02.345Z,16.36
2022-09-02T09:27:02.392Z,15.83
2022-09-02T09:32:02.590Z,15.68
2022-09-02T09:37:02.868Z,15.59
2022-09-02T09:42:02.812Z,15.38
2022-09-02T09:47:02.425Z,15.18
2022-09-02T09:52:02.471Z,15.40
2022-09-02T09:57:02.392Z,14.58
2022-09-02T10:02:02.500Z,15.30
2022-09-02T10:07:02.521Z,15.26
2022-09-02T10:12:03.521Z,15.27
2022-09-02T10:17:03.406Z,15.86
2022-09-02T10:22:03.695Z,16.70
2022-09-02T10:27:03.470Z,16.44
2022-09-02T10:32:03.597Z,17.06
2022-09-02T10:37:03.498Z,18.10
2022-09-02T10:42:03.536Z,19.43
2022-09-02T10:47:06.574Z,20.39
2022-09-02T10:52:06.504Z,20.96
2022-09-02T10:57:06.550Z,21.15
2022-09-02T11:02:07.464Z,21.82
2022-09-02T11:07:07.567Z,22.71
2022-09-02T11:12:08.307Z,22.70
2022-09-02T11:17:12.887Z,23.28
2022-09-02T11:22:10.653Z,24.03
2022-09-02T11:27:25.774Z,24.34
2022-09-02T11:32:12.902Z,24.43
2022-09-02T11:37:13.928Z,24.68
2022-09-02T11:42:14.640Z,24.55
2022-09-02T11:47:15.026Z,24.74
2022-09-02T11:52:16.550Z,24.71
2022-09-02T11:57:16.668Z,25.28
2022-09-02T12:02:16.686Z,25.67
2022-09-02T12:07:18.422Z,25.60
2022-09-02T12:12:18.630Z,25.79
2022-09-02T12:17:18.643Z,26.25
2022-09-02T12:22:21.439Z,26.54
2022-09-02T12:27:22.210Z,26.91
2022-09-02T12:32:25.626Z,27.68
2022-09-02T12:37:25.562Z,28.36
2022-09-02T12:42:25.615Z,28.18
2022-09-02T12:47:26.664Z,28.48
2022-09-02T12:52:26.578Z,28.68
2022-09-02T12:57:26.690Z,28.84
2022-09-02T13:02:29.633Z,28.93
2022-09-02T13:07:28.554Z,29.27
2022-09-02T13:12:30.019Z,29.44
2022-09-02T13:17:38.637Z,29.27
2022-09-02T13:22:33.571Z,29.27
2022-09-02T13:27:35.764Z,28.96
2022-09-02T13:32:36.094Z,29.06
2022-09-02T13:37:36.698Z,28.77
2022-09-02T13:42:37.322Z,28.61
2022-09-02T13:47:37.633Z,28.52
2022-09-02T13:53:34.414Z,28.25
2022-09-02T13:57:40.121Z,28.35
2022-09-02T14:02:39.925Z,28.98
2022-09-02T14:07:39.614Z,29.09
2022-09-02T14:12:39.644Z,29.03
2022-09-02T14:17:39.609Z,29.37
2022-09-02T14:22:39.641Z,29.78
2022-09-02T14:27:39.625Z,29.79
2022-09-02T14:32:39.659Z,29.82
2022-09-02T14:37:39.730Z,29.92
2022-09-02T14:42:39.630Z,29.98
2022-09-02T14:47:39.765Z,30.13
2022-09-02T14:52:39.684Z,30.14
2022-09-02T14:57:41.573Z,29.93
2022-09-02T15:02:42.944Z,29.97
2022-09-02T15:07:42.684Z,30.16
2022-09-02T15:12:42.679Z,29.98
2022-09-02T15:17:42.676Z,29.73
2022-09-02T15:22:42.837Z,29.79
2022-09-02T15:27:42.667Z,30.02
2022-09-02T15:32:42.676Z,30.21
2022-09-02T15:37:42.734Z,30.22
2022-09-02T15:42:42.738Z,30.01
2022-09-02T15:47:42.793Z,29.88
2022-09-02T15:52:44.590Z,29.76
2022-09-02T15:57:45.006Z,29.99
2022-09-02T16:02:45.812Z,30.11
2022-09-02T16:07:45.855Z,30.37
2022-09-02T16:12:47.594Z,30.81
2022-09-02T16:17:48.640Z,30.97
2022-09-02T16:22:49.117Z,31.31
2022-09-02T16:27:55.916Z,31.39
2022-09-02T16:32:55.713Z,31.56
2022-09-02T16:37:57.146Z,31.63
2022-09-02T16:42:56.739Z,31.83
2022-09-02T16:47:57.353Z,31.79
2022-09-02T16:52:57.754Z,31.85
2022-09-02T16:57:59.725Z,31.98
2022-09-02T17:02:59.755Z,32.18
2022-09-02T17:08:01.499Z,32.53
2022-09-02T17:13:01.771Z,32.91
2022-09-02T17:18:01.775Z,33.35
2022-09-02T17:23:03.710Z,33.40
2022-09-02T17:28:03.792Z,33.38
2022-09-02T17:33:04.599Z,33.47
2022-09-02T17:38:04.876Z,33.61
2022-09-02T17:43:04.784Z,33.73
2022-09-02T17:48:31.785Z,34.08
2022-09-02T17:53:06.828Z,34.43
2022-09-02T17:58:06.824Z,34.71
2022-09-02T18:03:12.425Z,34.97
2022-09-02T18:08:08.939Z,35.34
2022-09-02T18:13:08.813Z,35.57
2022-09-02T18:18:08.875Z,35.86
2022-09-02T18:23:09.542Z,36.23
2022-09-02T18:28:09.941Z,36.65
2022-09-02T18:33:10.835Z,36.78
2022-09-02T18:38:10.972Z,37.01
2022-09-02T18:43:12.470Z,37.19
2022-09-02T18:48:12.965Z,37.60
2022-09-02T18:53:13.003Z,37.78
2022-09-02T18:58:12.863Z,37.93
2022-09-02T19:03:13.331Z,37.95
2022-09-02T19:08:32.638Z,38.05
2022-09-02T19:13:33.509Z,38.08
2022-09-02T19:18:34.019Z,38.25
2022-09-02T19:23:34.004Z,38.39
2022-09-02T19:28:33.919Z,38.54
2022-09-02T19:33:33.924Z,38.74
2022-09-02T19:38:34.044Z,38.81
2022-09-02T19:43:35.403Z,38.95
2022-09-02T19:48:35.445Z,39.12
2022-09-02T19:53:36.478Z,39.07
2022-09-02T19:58:37.226Z,39.16
2022-09-02T20:03:37.909Z,39.13
2022-09-02T20:08:38.064Z,39.38
2022-09-02T20:13:41.438Z,39.47
2022-09-02T20:18:39.910Z,39.45
2022-09-02T20:23:39.977Z,39.47
2022-09-02T20:28:43.761Z,39.62
2022-09-02T20:33:41.980Z,39.64
2022-09-02T20:38:42.077Z,39.75
2022-09-02T20:43:42.022Z,39.81
2022-09-02T20:48:42.121Z,40.01
2022-09-02T20:53:42.633Z,40.09
2022-09-02T20:58:42.950Z,40.23
2022-09-02T21:03:43.016Z,40.39
2022-09-02T21:08:44.992Z,40.60
2022-09-02T21:13:45.078Z,40.71
2022-09-02T21:18:45.136Z,40.78
2022-09-02T21:23:44.941Z,40.79
2022-09-02T21:28:45.165Z,40.92
2022-09-02T21:33:45.041Z,40.94
2022-09-02T21:38:45.136Z,41.06
2022-09-02T21:43:44.986Z,41.19
2022-09-02T21:48:44.990Z,41.25
2022-09-02T21:53:45.113Z,41.33
2022-09-02T21:58:46.798Z,41.47
2022-09-02T22:03:47.179Z,41.55
2022-09-02T22:08:47.146Z,41.73
2022-09-02T22:13:47.778Z,41.81
2022-09-02T22:18:50.892Z,41.97
2022-09-02T22:23:52.892Z,42.08
2022-09-02T22:28:53.119Z,42.18
2022-09-02T22:33:55.678Z,42.28
2022-09-02T22:38:58.020Z,42.44
2022-09-02T22:43:58.106Z,42.48
2022-09-02T22:49:16.297Z,42.57
2022-09-02T22:54:17.045Z,42.78
2022-09-02T22:59:17.587Z,42.95
2022-09-02T23:04:17.144Z,43.14
2022-09-02T23:09:18.117Z,43.20
2022-09-02T23:14:18.858Z,43.34
2022-09-02T23:19:19.086Z,43.41
2022-09-02T23:24:19.409Z,43.50
2022-09-02T23:29:20.953Z,43.67
2022-09-02T23:34:23.685Z,43.89
2022-09-02T23:39:24.718Z,44.01
2022-09-02T23:44:25.272Z,44.09
2022-09-02T23:49:27.208Z,44.21
2022-09-02T23:54:27.108Z,44.34
2022-09-02T23:59:27.136Z,44.47
